sensor_id;sensor_type;location;lat;lon;timestamp;pressure;altitude;pressure_sealevel;temperature;humidity
83242;BME280;73133;47.848;9.000;2023-12-20T04:03:10;95863.66;;;3.41;100.00
83242;BME280;73133;47.848;9.000;2023-12-20T04:05:39;95857.44;;;3.41;100.00
83242;BME280;73133;47.848;9.000;2023-12-20T04:08:05;95871.91;;;3.45;100.00
83242;BME280;73133;47.848;9.000;2023-12-20T04:10:30;95868.63;;;3.39;100.00
83242;BME280;73133;47.848;9.000;2023-12-20T04:12:56;95877.19;;;3.41;100.00
83242;BME280;73133;47.848;9.000;2023-12-20T04:15:21;95876.06;;;3.42;100.00
83242;BME280;73133;47.848;9.000;2023-12-20T04:17:47;95879.91;;;3.41;100.00
83242;BME280;73133;47.848;9.000;2023-12-20T04:20:12;95888.03;;;3.41;100.00
83242;BME280;73133;47.848;9.000;2023-12-20T04:22:37;95870.44;;;3.35;100.00
83242;BME280;73133;47.848;9.000;2023-12-20T04:25:03;95878.56;;;3.35;100.00
83242;BME280;73133;47.848;9.000;2023-12-20T04:27:28;95884.00;;;3.35;100.00
83242;BME280;73133;47.848;9.000;2023-12-20T04:29:54;95880.81;;;3.33;100.00
83242;BME280;73133;47.848;9.000;2023-12-20T04:32:19;95882.31;;;3.31;100.00
83242;BME280;73133;47.848;9.000;2023-12-20T04:34:44;95897.00;;;3.30;100.00
83242;BME280;73133;47.848;9.000;2023-12-20T04:37:10;95896.44;;;3.24;100.00
83242;BME280;73133;47.848;9.000;2023-12-20T04:39:35;95889.88;;;3.25;100.00
83242;BME280;73133;47.848;9.000;2023-12-20T04:42:00;95897.66;;;3.27;100.00
83242;BME280;73133;47.848;9.000;2023-12-20T04:44:26;95899.16;;;3.24;100.00
83242;BME280;73133;47.848;9.000;2023-12-20T04:46:51;95898.00;;;3.25;100.00
83242;BME280;73133;47.848;9.000;2023-12-20T04:49:17;95900.69;;;3.25;100.00
83242;BME280;73133;47.848;9.000;2023-12-20T04:51:42;95902.97;;;3.23;100.00
83242;BME280;73133;47.848;9.000;2023-12-20T04:54:07;95915.81;;;3.26;100.00
83242;BME280;73133;47.848;9.000;2023-12-20T04:56:33;95920.91;;;3.28;100.00
83242;BME280;73133;47.848;9.000;2023-12-20T04:58:58;95908.50;;;3.27;100.00
83242;BME280;73133;47.848;9.000;2023-12-20T05:01:23;95910.41;;;3.26;100.00
83242;BME280;73133;47.848;9.000;2023-12-20T05:03:49;95901.84;;;3.24;100.00
83242;BME280;73133;47.848;9.000;2023-12-20T05:06:14;95902.28;;;3.26;100.00
83242;BME280;73133;47.848;9.000;2023-12-20T05:08:40;95907.03;;;3.29;100.00
83242;BME280;73133;47.848;9.000;2023-12-20T05:11:05;95906.69;;;3.31;100.00
83242;BME280;73133;47.848;9.000;2023-12-20T05:13:31;95917.16;;;3.32;100.00
83242;BME280;73133;47.848;9.000;2023-12-20T05:15:56;95914.91;;;3.34;100.00
83242;BME280;73133;47.848;9.000;2023-12-20T05:18:22;95909.84;;;3.33;100.00
83242;BME280;73133;47.848;9.000;2023-12-20T05:20:48;95925.09;;;3.37;100.00
83242;BME280;73133;47.848;9.000;2023-12-20T05:23:14;95933.63;;;3.39;100.00
83242;BME280;73133;47.848;9.000;2023-12-20T05:25:40;95941.78;;;3.39;100.00
83242;BME280;73133;47.848;9.000;2023-12-20T05:28:05;95949.56;;;3.41;100.00
83242;BME280;73133;47.848;9.000;2023-12-20T05:30:31;95950.81;;;3.43;100.00
83242;BME280;73133;47.848;9.000;2023-12-20T05:32:56;95932.50;;;3.40;100.00
83242;BME280;73133;47.848;9.000;2023-12-20T05:35:21;95928.22;;;3.39;100.00
83242;BME280;73133;47.848;9.000;2023-12-20T05:37:48;95939.06;;;3.39;100.00
83242;BME280;73133;47.848;9.000;2023-12-20T05:40:14;95935.22;;;3.40;100.00
83242;BME280;73133;47.848;9.000;2023-12-20T05:42:39;95936.81;;;3.41;100.00
83242;BME280;73133;47.848;9.000;2023-12-20T05:45:08;95942.34;;;3.45;100.00
83242;BME280;73133;47.848;9.000;2023-12-20T05:47:33;95944.69;;;3.46;100.00
83242;BME280;73133;47.848;9.000;2023-12-20T05:49:59;95942.44;;;3.48;100.00
83242;BME280;73133;47.848;9.000;2023-12-20T05:52:24;95935.00;;;3.45;100.00
83242;BME280;73133;47.848;9.000;2023-12-20T05:54:50;95937.81;;;3.49;100.00
83242;BME280;73133;47.848;9.000;2023-12-20T05:57:15;95941.66;;;3.48;100.00
83242;BME280;73133;47.848;9.000;2023-12-20T05:59:40;95937.03;;;3.48;100.00
83242;BME280;73133;47.848;9.000;2023-12-20T06:02:06;95941.78;;;3.51;100.00
83242;BME280;73133;47.848;9.000;2023-12-20T06:04:31;95961.16;;;3.53;100.00
83242;BME280;73133;47.848;9.000;2023-12-20T06:06:57;95973.16;;;3.52;100.00
83242;BME280;73133;47.848;9.000;2023-12-20T06:09:22;95957.66;;;3.53;100.00
83242;BME280;73133;47.848;9.000;2023-12-20T06:11:48;95959.63;;;3.52;100.00
83242;BME280;73133;47.848;9.000;2023-12-20T06:14:13;95968.16;;;3.54;100.00
83242;BME280;73133;47.848;9.000;2023-12-20T06:16:41;95982.19;;;3.56;100.00
83242;BME280;73133;47.848;9.000;2023-12-20T06:19:06;95984.09;;;3.56;100.00
83242;BME280;73133;47.848;9.000;2023-12-20T06:21:32;95976.44;;;3.58;100.00
83242;BME280;73133;47.848;9.000;2023-12-20T06:23:59;95976.75;;;3.56;100.00
83242;BME280;73133;47.848;9.000;2023-12-20T06:26:24;95979.47;;;3.56;100.00
83242;BME280;73133;47.848;9.000;2023-12-20T06:28:50;95983.06;;;3.61;100.00
83242;BME280;73133;47.848;9.000;2023-12-20T06:31:15;95982.63;;;3.59;100.00
83242;BME280;73133;47.848;9.000;2023-12-20T06:33:40;95992.31;;;3.60;100.00
83242;BME280;73133;47.848;9.000;2023-12-20T06:36:07;95987.69;;;3.60;100.00
83242;BME280;73133;47.848;9.000;2023-12-20T06:38:32;95993.25;;;3.64;100.00
83242;BME280;73133;47.848;9.000;2023-12-20T06:40:58;95997.06;;;3.63;100.00
83242;BME280;73133;47.848;9.000;2023-12-20T06:43:23;96002.50;;;3.63;100.00
83242;BME280;73133;47.848;9.000;2023-12-20T06:45:49;95992.78;;;3.62;100.00
83242;BME280;73133;47.848;9.000;2023-12-20T06:48:14;96000.25;;;3.65;100.00
83242;BME280;73133;47.848;9.000;2023-12-20T06:50:39;96004.53;;;3.66;100.00
83242;BME280;73133;47.848;9.000;2023-12-20T06:53:06;96009.59;;;3.67;100.00
83242;BME280;73133;47.848;9.000;2023-12-20T06:55:33;96001.81;;;3.66;100.00
83242;BME280;73133;47.848;9.000;2023-12-20T06:57:58;96006.09;;;3.67;100.00
83242;BME280;73133;47.848;9.000;2023-12-20T07:00:24;96002.25;;;3.68;100.00
83242;BME280;73133;47.848;9.000;2023-12-20T07:02:49;96010.38;;;3.68;100.00
83242;BME280;73133;47.848;9.000;2023-12-20T07:05:18;96008.81;;;3.67;100.00
83242;BME280;73133;47.848;9.000;2023-12-20T07:07:45;96021.22;;;3.68;100.00
83242;BME280;73133;47.848;9.000;2023-12-20T07:10:11;96022.47;;;3.70;100.00
83242;BME280;73133;47.848;9.000;2023-12-20T07:12:37;96013.56;;;3.70;100.00
83242;BME280;73133;47.848;9.000;2023-12-20T07:15:02;96014.00;;;3.72;100.00
83242;BME280;73133;47.848;9.000;2023-12-20T07:17:28;96022.13;;;3.72;100.00
83242;BME280;73133;47.848;9.000;2023-12-20T07:19:53;96019.09;;;3.73;100.00
83242;BME280;73133;47.848;9.000;2023-12-20T07:22:19;96016.03;;;3.75;100.00
83242;BME280;73133;47.848;9.000;2023-12-20T07:24:44;96021.44;;;3.75;100.00
83242;BME280;73133;47.848;9.000;2023-12-20T07:27:09;96027.78;;;3.79;100.00
83242;BME280;73133;47.848;9.000;2023-12-20T07:29:34;96024.63;;;3.77;100.00
83242;BME280;73133;47.848;9.000;2023-12-20T07:32:00;96027.78;;;3.79;100.00
83242;BME280;73133;47.848;9.000;2023-12-20T07:34:25;96030.91;;;3.81;100.00
83242;BME280;73133;47.848;9.000;2023-12-20T07:36:51;96028.66;;;3.83;100.00
83242;BME280;73133;47.848;9.000;2023-12-20T07:39:16;96041.09;;;3.84;100.00
83242;BME280;73133;47.848;9.000;2023-12-20T07:41:41;96041.09;;;3.84;100.00
83242;BME280;73133;47.848;9.000;2023-12-20T07:44:07;96045.84;;;3.87;100.00
83242;BME280;73133;47.848;9.000;2023-12-20T07:46:32;96026.88;;;3.87;100.00
83242;BME280;73133;47.848;9.000;2023-12-20T07:48:58;96032.72;;;3.89;100.00
83242;BME280;73133;47.848;9.000;2023-12-20T07:51:23;96032.72;;;3.89;100.00
83242;BME280;73133;47.848;9.000;2023-12-20T07:53:49;96033.50;;;3.89;100.00
83242;BME280;73133;47.848;9.000;2023-12-20T07:56:18;96038.94;;;3.89;100.00
83242;BME280;73133;47.848;9.000;2023-12-20T07:58:45;96054.19;;;3.94;100.00
83242;BME280;73133;47.848;9.000;2023-12-20T08:01:11;96052.38;;;3.98;100.00
83242;BME280;73133;47.848;9.000;2023-12-20T08:03:37;96053.94;;;3.99;100.00
83242;BME280;73133;47.848;9.000;2023-12-20T08:06:03;96067.19;;;4.01;100.00
83242;BME280;73133;47.848;9.000;2023-12-20T08:08:29;96071.09;;;4.03;100.00
83242;BME280;73133;47.848;9.000;2023-12-20T08:10:54;96063.44;;;4.05;100.00
83242;BME280;73133;47.848;9.000;2023-12-20T08:13:19;96058.09;;;4.09;100.00
83242;BME280;73133;47.848;9.000;2023-12-20T08:15:45;96056.63;;;4.11;100.00
83242;BME280;73133;47.848;9.000;2023-12-20T08:18:10;96060.94;;;4.12;100.00
83242;BME280;73133;47.848;9.000;2023-12-20T08:20:36;96061.81;;;4.16;100.00
83242;BME280;73133;47.848;9.000;2023-12-20T08:23:01;96064.72;;;4.23;100.00
83242;BME280;73133;47.848;9.000;2023-12-20T08:25:26;96061.44;;;4.30;100.00
83242;BME280;73133;47.848;9.000;2023-12-20T08:27:52;96057.47;;;4.40;100.00
83242;BME280;73133;47.848;9.000;2023-12-20T08:30:18;96052.38;;;4.38;100.00
83242;BME280;73133;47.848;9.000;2023-12-20T08:32:47;96058.34;;;4.44;100.00
83242;BME280;73133;47.848;9.000;2023-12-20T08:35:12;96064.03;;;4.39;100.00
83242;BME280;73133;47.848;9.000;2023-12-20T08:37:38;96066.72;;;4.39;100.00
83242;BME280;73133;47.848;9.000;2023-12-20T08:40:03;96066.72;;;4.39;100.00
83242;BME280;73133;47.848;9.000;2023-12-20T08:42:29;96075.75;;;4.43;100.00
83242;BME280;73133;47.848;9.000;2023-12-20T08:44:59;96073.25;;;4.50;100.00
83242;BME280;73133;47.848;9.000;2023-12-20T08:47:25;96073.56;;;4.60;100.00
83242;BME280;73133;47.848;9.000;2023-12-20T08:49:50;96072.50;;;4.65;100.00
83242;BME280;73133;47.848;9.000;2023-12-20T08:52:15;96068.78;;;4.69;100.00
83242;BME280;73133;47.848;9.000;2023-12-20T08:54:41;96068.78;;;4.69;100.00
83242;BME280;73133;47.848;9.000;2023-12-20T08:57:06;96060.72;;;4.73;100.00
83242;BME280;73133;47.848;9.000;2023-12-20T08:59:32;96061.50;;;4.73;100.00
83242;BME280;73133;47.848;9.000;2023-12-20T09:01:58;96054.94;;;4.74;100.00
83242;BME280;73133;47.848;9.000;2023-12-20T09:04:23;96061.84;;;4.72;100.00
83242;BME280;73133;47.848;9.000;2023-12-20T09:06:48;96069.13;;;4.68;100.00
83242;BME280;73133;47.848;9.000;2023-12-20T09:09:14;96068.59;;;4.78;100.00
83242;BME280;73133;47.848;9.000;2023-12-20T09:11:39;96067.06;;;4.77;100.00
83242;BME280;73133;47.848;9.000;2023-12-20T09:14:05;96063.97;;;4.79;100.00
83242;BME280;73133;47.848;9.000;2023-12-20T09:16:30;96060.81;;;4.77;100.00
83242;BME280;73133;47.848;9.000;2023-12-20T09:18:56;96065.81;;;4.74;100.00
83242;BME280;73133;47.848;9.000;2023-12-20T09:21:22;96077.91;;;4.77;100.00
83242;BME280;73133;47.848;9.000;2023-12-20T09:23:47;96078.78;;;4.81;100.00
83242;BME280;73133;47.848;9.000;2023-12-20T09:26:13;96076.72;;;4.90;100.00
83242;BME280;73133;47.848;9.000;2023-12-20T09:28:38;96078.28;;;4.91;100.00
83242;BME280;73133;47.848;9.000;2023-12-20T09:31:05;96087.56;;;4.90;100.00
83242;BME280;73133;47.848;9.000;2023-12-20T09:33:31;96088.19;;;4.84;100.00
83242;BME280;73133;47.848;9.000;2023-12-20T09:35:57;96085.34;;;4.80;100.00
83242;BME280;73133;47.848;9.000;2023-12-20T09:38:22;96091.44;;;4.89;100.00
83242;BME280;73133;47.848;9.000;2023-12-20T09:40:48;96098.88;;;4.92;100.00
83242;BME280;73133;47.848;9.000;2023-12-20T09:43:19;96094.06;;;5.01;100.00
83242;BME280;73133;47.848;9.000;2023-12-20T09:45:47;96096.88;;;5.05;100.00
83242;BME280;73133;47.848;9.000;2023-12-20T09:48:13;96098.13;;;5.07;100.00
83242;BME280;73133;47.848;9.000;2023-12-20T09:50:41;96086.78;;;5.05;100.00
83242;BME280;73133;47.848;9.000;2023-12-20T09:53:08;96093.41;;;5.04;100.00
83242;BME280;73133;47.848;9.000;2023-12-20T09:55:36;96090.91;;;4.99;100.00
83242;BME280;73133;47.848;9.000;2023-12-20T09:58:01;96084.59;;;4.95;100.00
83242;BME280;73133;47.848;9.000;2023-12-20T10:00:27;96080.75;;;4.96;100.00
83242;BME280;73133;47.848;9.000;2023-12-20T10:02:59;96077.31;;;4.99;100.00
83242;BME280;73133;47.848;9.000;2023-12-20T10:05:29;96067.28;;;5.15;100.00
83242;BME280;73133;47.848;9.000;2023-12-20T10:07:55;96058.09;;;5.36;100.00
83242;BME280;73133;47.848;9.000;2023-12-20T10:10:21;96049.94;;;5.36;100.00
83242;BME280;73133;47.848;9.000;2023-12-20T10:13:06;96045.38;;;5.40;100.00
83242;BME280;73133;47.848;9.000;2023-12-20T10:15:33;96039.75;;;5.48;100.00
83242;BME280;73133;47.848;9.000;2023-12-20T10:17:58;96035.38;;;5.44;100.00
83242;BME280;73133;47.848;9.000;2023-12-20T10:20:24;96031.31;;;5.69;100.00
83242;BME280;73133;47.848;9.000;2023-12-20T10:22:50;96030.06;;;5.82;100.00
83242;BME280;73133;47.848;9.000;2023-12-20T10:25:19;96039.53;;;5.88;100.00
83242;BME280;73133;47.848;9.000;2023-12-20T10:27:44;96024.91;;;5.93;100.00
83242;BME280;73133;47.848;9.000;2023-12-20T10:30:10;96022.53;;;5.91;100.00
83242;BME280;73133;47.848;9.000;2023-12-20T10:32:35;96028.22;;;5.86;100.00
83242;BME280;73133;47.848;9.000;2023-12-20T10:35:01;96025.50;;;5.86;100.00
83242;BME280;73133;47.848;9.000;2023-12-20T10:37:27;96017.53;;;5.93;100.00
83242;BME280;73133;47.848;9.000;2023-12-20T10:39:54;96019.53;;;5.97;100.00
83242;BME280;73133;47.848;9.000;2023-12-20T10:42:24;96023.22;;;5.88;100.00
83242;BME280;73133;47.848;9.000;2023-12-20T10:44:51;96016.56;;;5.70;100.00
83242;BME280;73133;47.848;9.000;2023-12-20T10:47:19;96014.47;;;5.79;100.00
83242;BME280;73133;47.848;9.000;2023-12-20T10:49:45;96013.94;;;5.89;100.00
83242;BME280;73133;47.848;9.000;2023-12-20T10:52:11;96019.69;;;6.04;99.76
83242;BME280;73133;47.848;9.000;2023-12-20T10:54:40;96009.09;;;6.18;100.00
83242;BME280;73133;47.848;9.000;2023-12-20T10:57:06;96005.81;;;6.28;98.02
83242;BME280;73133;47.848;9.000;2023-12-20T10:59:37;95995.13;;;6.39;96.09
83242;BME280;73133;47.848;9.000;2023-12-20T11:02:04;95998.34;;;6.44;95.40
83242;BME280;73133;47.848;9.000;2023-12-20T11:07:35;96002.44;;;7.41;89.71
83242;BME280;73133;47.848;9.000;2023-12-20T11:13:03;95991.59;;;7.71;86.62
83242;BME280;73133;47.848;9.000;2023-12-20T11:15:35;95994.13;;;7.83;86.09
83242;BME280;73133;47.848;9.000;2023-12-20T11:18:01;95992.38;;;7.98;84.41
83242;BME280;73133;47.848;9.000;2023-12-20T11:20:44;95995.22;;;7.53;86.44
83242;BME280;73133;47.848;9.000;2023-12-20T11:23:09;95986.59;;;7.01;89.15
83242;BME280;73133;47.848;9.000;2023-12-20T11:25:56;95989.53;;;6.93;91.54
83242;BME280;73133;47.848;9.000;2023-12-20T11:28:25;95996.91;;;6.69;91.28
83242;BME280;73133;47.848;9.000;2023-12-20T11:30:55;95990.84;;;6.80;91.16
83242;BME280;73133;47.848;9.000;2023-12-20T11:33:22;95987.78;;;6.81;91.43
83242;BME280;73133;47.848;9.000;2023-12-20T11:35:48;95979.50;;;6.97;90.51
83242;BME280;73133;47.848;9.000;2023-12-20T11:38:14;95983.13;;;7.27;90.46
83242;BME280;73133;47.848;9.000;2023-12-20T11:40:42;95981.28;;;7.35;89.71
83242;BME280;73133;47.848;9.000;2023-12-20T11:43:07;95987.09;;;7.33;90.41
83242;BME280;73133;47.848;9.000;2023-12-20T11:45:33;95984.03;;;7.35;91.82
83242;BME280;73133;47.848;9.000;2023-12-20T11:48:03;95987.53;;;7.35;92.80
83242;BME280;73133;47.848;9.000;2023-12-20T11:50:29;95985.38;;;7.22;91.78
83242;BME280;73133;47.848;9.000;2023-12-20T11:52:57;95983.91;;;6.82;88.53
83242;BME280;73133;47.848;9.000;2023-12-20T11:55:23;95987.72;;;6.58;88.83
83242;BME280;73133;47.848;9.000;2023-12-20T11:57:50;95982.00;;;6.44;88.20
83242;BME280;73133;47.848;9.000;2023-12-20T12:00:15;95982.03;;;6.25;89.25
83242;BME280;73133;47.848;9.000;2023-12-20T12:02:41;95988.25;;;6.25;90.18
83242;BME280;73133;47.848;9.000;2023-12-20T12:05:07;95982.91;;;6.29;88.28
83242;BME280;73133;47.848;9.000;2023-12-20T12:07:33;95979.50;;;6.16;87.44
83242;BME280;73133;47.848;9.000;2023-12-20T12:09:59;95983.31;;;6.12;87.98
83242;BME280;73133;47.848;9.000;2023-12-20T12:12:24;95981.72;;;6.11;88.71
83242;BME280;73133;47.848;9.000;2023-12-20T12:14:53;95979.31;;;6.06;86.05
83242;BME280;73133;47.848;9.000;2023-12-20T12:17:18;95986.31;;;6.07;85.58
83242;BME280;73133;47.848;9.000;2023-12-20T12:19:43;95974.31;;;6.08;86.86
83242;BME280;73133;47.848;9.000;2023-12-20T12:22:11;95976.44;;;6.18;87.61
83242;BME280;73133;47.848;9.000;2023-12-20T12:24:45;95971.88;;;6.22;85.35
83242;BME280;73133;47.848;9.000;2023-12-20T12:27:12;95972.13;;;6.17;85.00
83242;BME280;73133;47.848;9.000;2023-12-20T12:29:38;95971.00;;;6.18;83.83
83242;BME280;73133;47.848;9.000;2023-12-20T12:32:08;95970.94;;;6.33;83.63
83242;BME280;73133;47.848;9.000;2023-12-20T12:34:34;95972.66;;;6.42;83.36
83242;BME280;73133;47.848;9.000;2023-12-20T12:37:01;95971.50;;;6.43;82.61
83242;BME280;73133;47.848;9.000;2023-12-20T12:39:26;95982.16;;;6.70;82.53
83242;BME280;73133;47.848;9.000;2023-12-20T12:41:52;95982.84;;;6.67;82.00
83242;BME280;73133;47.848;9.000;2023-12-20T12:44:18;95983.56;;;6.64;84.13
83242;BME280;73133;47.848;9.000;2023-12-20T12:46:46;95984.88;;;6.51;85.05
83242;BME280;73133;47.848;9.000;2023-12-20T12:49:12;95986.53;;;6.37;82.72
83242;BME280;73133;47.848;9.000;2023-12-20T12:51:38;95984.44;;;6.30;84.33
83242;BME280;73133;47.848;9.000;2023-12-20T12:54:03;95986.03;;;6.31;85.90
83242;BME280;73133;47.848;9.000;2023-12-20T12:56:29;95982.66;;;6.18;83.50
83242;BME280;73133;47.848;9.000;2023-12-20T12:58:54;95977.88;;;6.12;84.56
83242;BME280;73133;47.848;9.000;2023-12-20T13:01:20;95998.34;;;6.06;85.95
83242;BME280;73133;47.848;9.000;2023-12-20T13:03:45;95991.47;;;5.92;85.67
83242;BME280;73133;47.848;9.000;2023-12-20T13:06:11;95983.94;;;5.70;84.21
83242;BME280;73133;47.848;9.000;2023-12-20T13:08:37;95993.81;;;5.59;83.40
83242;BME280;73133;47.848;9.000;2023-12-20T13:11:03;95986.44;;;5.44;83.36
83242;BME280;73133;47.848;9.000;2023-12-20T13:13:29;95993.19;;;5.50;83.87
83242;BME280;73133;47.848;9.000;2023-12-20T13:15:55;95995.22;;;5.53;79.39
83242;BME280;73133;47.848;9.000;2023-12-20T13:18:22;95998.34;;;5.55;80.75
83242;BME280;73133;47.848;9.000;2023-12-20T13:20:48;95994.78;;;5.51;78.97
83242;BME280;73133;47.848;9.000;2023-12-20T13:23:13;96000.03;;;5.60;79.26
83242;BME280;73133;47.848;9.000;2023-12-20T13:25:42;96007.03;;;5.61;77.50
83242;BME280;73133;47.848;9.000;2023-12-20T13:28:07;95999.00;;;5.83;75.12
83242;BME280;73133;47.848;9.000;2023-12-20T13:30:33;95994.47;;;8.68;66.18
83242;BME280;73133;47.848;9.000;2023-12-20T13:32:59;95991.47;;;15.12;43.80
83242;BME280;73133;47.848;9.000;2023-12-20T13:35:25;96002.31;;;18.26;38.68
83242;BME280;73133;47.848;9.000;2023-12-20T13:37:50;95994.59;;;22.14;29.61
83242;BME280;73133;47.848;9.000;2023-12-20T13:40:16;95995.13;;;26.94;22.54
83242;BME280;73133;47.848;9.000;2023-12-20T13:42:41;95987.22;;;28.44;20.37
83242;BME280;73133;47.848;9.000;2023-12-20T13:45:07;95992.06;;;28.38;20.53
83242;BME280;73133;47.848;9.000;2023-12-20T13:47:33;95986.84;;;28.25;20.56
83242;BME280;73133;47.848;9.000;2023-12-20T13:49:59;95997.88;;;26.68;20.94
83242;BME280;73133;47.848;9.000;2023-12-20T13:52:24;95988.63;;;27.34;19.96
83242;BME280;73133;47.848;9.000;2023-12-20T13:54:49;95990.66;;;28.65;18.53
83242;BME280;73133;47.848;9.000;2023-12-20T13:57:15;96001.56;;;28.40;19.07
83242;BME280;73133;47.848;9.000;2023-12-20T13:59:40;96004.59;;;28.00;18.93
83242;BME280;73133;47.848;9.000;2023-12-20T14:02:05;96005.97;;;19.51;27.58
83242;BME280;73133;47.848;9.000;2023-12-20T14:04:31;96017.88;;;12.79;39.52
83242;BME280;73133;47.848;9.000;2023-12-20T14:06:56;96035.16;;;12.80;40.30
83242;BME280;73133;47.848;9.000;2023-12-20T14:09:22;96009.06;;;18.57;31.09
83242;BME280;73133;47.848;9.000;2023-12-20T14:11:48;96014.78;;;21.78;25.82
83242;BME280;73133;47.848;9.000;2023-12-20T14:14:13;96030.47;;;21.53;26.06
83242;BME280;73133;47.848;9.000;2023-12-20T14:16:38;96036.97;;;13.80;38.35
83242;BME280;73133;47.848;9.000;2023-12-20T14:19:04;96040.63;;;10.74;46.19
83242;BME280;73133;47.848;9.000;2023-12-20T14:21:30;96050.41;;;9.15;50.64
83242;BME280;73133;47.848;9.000;2023-12-20T14:23:55;96048.72;;;12.03;44.20
83242;BME280;73133;47.848;9.000;2023-12-20T14:26:21;96046.41;;;10.51;47.18
83242;BME280;73133;47.848;9.000;2023-12-20T14:28:46;96055.38;;;8.68;51.71
83242;BME280;73133;47.848;9.000;2023-12-20T14:31:11;96048.34;;;7.85;56.43
83242;BME280;73133;47.848;9.000;2023-12-20T14:33:37;96049.97;;;8.16;55.14
83242;BME280;73133;47.848;9.000;2023-12-20T14:36:04;96047.34;;;7.47;57.11
83242;BME280;73133;47.848;9.000;2023-12-20T14:38:33;96045.69;;;6.97;58.34
83242;BME280;73133;47.848;9.000;2023-12-20T14:40:59;96049.06;;;6.71;61.54
83242;BME280;73133;47.848;9.000;2023-12-20T14:43:25;96057.53;;;6.28;62.67
83242;BME280;73133;47.848;9.000;2023-12-20T14:45:52;96052.31;;;6.04;62.96
83242;BME280;73133;47.848;9.000;2023-12-20T14:48:17;96050.22;;;5.81;63.45
83242;BME280;73133;47.848;9.000;2023-12-20T14:50:43;96059.75;;;5.72;64.03
83242;BME280;73133;47.848;9.000;2023-12-20T14:53:09;96055.78;;;5.53;64.45
83242;BME280;73133;47.848;9.000;2023-12-20T14:55:34;96048.47;;;5.38;64.87
83242;BME280;73133;47.848;9.000;2023-12-20T14:58:00;96048.34;;;5.35;64.21
83242;BME280;73133;47.848;9.000;2023-12-20T15:00:26;96041.09;;;5.23;64.73
83242;BME280;73133;47.848;9.000;2023-12-20T15:02:51;96041.59;;;5.13;64.91
83242;BME280;73133;47.848;9.000;2023-12-20T15:05:19;96034.31;;;5.01;65.56
83242;BME280;73133;47.848;9.000;2023-12-20T15:07:44;96035.41;;;4.85;65.88
83242;BME280;73133;47.848;9.000;2023-12-20T15:10:10;96035.22;;;4.78;65.82
83242;BME280;73133;47.848;9.000;2023-12-20T15:12:35;96047.84;;;4.70;66.55
83242;BME280;73133;47.848;9.000;2023-12-20T15:15:01;96051.31;;;4.70;67.06
83242;BME280;73133;47.848;9.000;2023-12-20T15:17:26;96045.81;;;4.67;66.81
83242;BME280;73133;47.848;9.000;2023-12-20T15:19:52;96039.84;;;4.61;67.75
83242;BME280;73133;47.848;9.000;2023-12-20T15:22:17;96043.25;;;4.58;66.93
83242;BME280;73133;47.848;9.000;2023-12-20T15:24:43;96044.97;;;4.51;66.78
83242;BME280;73133;47.848;9.000;2023-12-20T15:27:10;96044.53;;;4.49;67.57
83242;BME280;73133;47.848;9.000;2023-12-20T15:29:36;96047.47;;;4.44;66.79
83242;BME280;73133;47.848;9.000;2023-12-20T15:32:02;96032.84;;;4.32;68.12
83242;BME280;73133;47.848;9.000;2023-12-20T15:34:29;96037.84;;;4.18;68.67
83242;BME280;73133;47.848;9.000;2023-12-20T15:36:54;96039.09;;;4.09;68.56
83242;BME280;73133;47.848;9.000;2023-12-20T15:39:20;96047.63;;;3.95;70.05
83242;BME280;73133;47.848;9.000;2023-12-20T15:41:46;96048.09;;;3.85;71.08
83242;BME280;73133;47.848;9.000;2023-12-20T15:44:11;96050.94;;;3.76;71.20
83242;BME280;73133;47.848;9.000;2023-12-20T15:46:36;96048.69;;;3.66;72.34
83242;BME280;73133;47.848;9.000;2023-12-20T15:49:02;96049.13;;;3.56;73.48
83242;BME280;73133;47.848;9.000;2023-12-20T15:51:27;96055.59;;;3.51;75.08
83242;BME280;73133;47.848;9.000;2023-12-20T15:53:52;96056.16;;;3.45;77.92
83242;BME280;73133;47.848;9.000;2023-12-20T15:56:18;96059.97;;;3.44;81.64
83242;BME280;73133;47.848;9.000;2023-12-20T15:58:45;96054.22;;;3.45;83.68
83242;BME280;73133;47.848;9.000;2023-12-20T16:01:10;96057.69;;;3.46;84.69
83242;BME280;73133;47.848;9.000;2023-12-20T16:03:35;96070.03;;;3.43;85.59
83242;BME280;73133;47.848;9.000;2023-12-20T16:06:01;96051.28;;;3.38;85.67
83242;BME280;73133;47.848;9.000;2023-12-20T16:08:26;96049.59;;;3.34;86.80
83242;BME280;73133;47.848;9.000;2023-12-20T16:10:52;96061.78;;;3.28;87.15
83242;BME280;73133;47.848;9.000;2023-12-20T16:13:18;96052.94;;;3.18;87.97
83242;BME280;73133;47.848;9.000;2023-12-20T16:15:44;96048.88;;;3.12;87.83
83242;BME280;73133;47.848;9.000;2023-12-20T16:18:10;96060.50;;;3.13;87.79
83242;BME280;73133;47.848;9.000;2023-12-20T16:20:39;96058.50;;;3.10;87.97
83242;BME280;73133;47.848;9.000;2023-12-20T16:23:05;96061.84;;;3.07;88.20
83242;BME280;73133;47.848;9.000;2023-12-20T16:25:31;96048.66;;;3.05;87.97
83242;BME280;73133;47.848;9.000;2023-12-20T16:27:56;96051.25;;;3.02;87.99
83242;BME280;73133;47.848;9.000;2023-12-20T16:30:21;96047.75;;;3.01;88.25
83242;BME280;73133;47.848;9.000;2023-12-20T16:32:47;96050.69;;;2.96;88.46
83242;BME280;73133;47.848;9.000;2023-12-20T16:35:13;96060.25;;;2.94;88.96
83242;BME280;73133;47.848;9.000;2023-12-20T16:37:38;96055.84;;;2.89;89.17
83242;BME280;73133;47.848;9.000;2023-12-20T16:40:05;96058.31;;;2.82;89.08
83242;BME280;73133;47.848;9.000;2023-12-20T16:42:31;96060.88;;;2.78;89.15
83242;BME280;73133;47.848;9.000;2023-12-20T16:44:56;96062.91;;;2.69;89.60
83242;BME280;73133;47.848;9.000;2023-12-20T16:47:21;96065.81;;;2.64;89.61
83242;BME280;73133;47.848;9.000;2023-12-20T16:49:47;96057.91;;;2.59;89.73
83242;BME280;73133;47.848;9.000;2023-12-20T16:52:12;96052.69;;;2.54;89.89
83242;BME280;73133;47.848;9.000;2023-12-20T16:54:38;96046.56;;;2.45;90.07
83242;BME280;73133;47.848;9.000;2023-12-20T16:57:04;96038.00;;;2.43;90.14
83242;BME280;73133;47.848;9.000;2023-12-20T16:59:29;96037.09;;;2.39;90.48
83242;BME280;73133;47.848;9.000;2023-12-20T17:02:00;96028.81;;;2.35;90.31
83242;BME280;73133;47.848;9.000;2023-12-20T17:04:29;96041.13;;;2.33;90.21
83242;BME280;73133;47.848;9.000;2023-12-20T17:06:57;96037.47;;;2.29;90.48